createdAt,value
2023-04-15T00:00:10.448Z,4.70
2023-04-15T00:03:12.700Z,3.85
2023-04-15T00:06:14.800Z,4.15
2023-04-15T00:09:16.721Z,3.97
2023-04-15T00:12:18.559Z,3.60
2023-04-15T00:15:20.345Z,4.57
2023-04-15T00:18:25.800Z,4.18
2023-04-15T00:21:32.601Z,5.00
2023-04-15T00:24:37.686Z,3.90
2023-04-15T00:27:39.476Z,4.15
2023-04-15T00:30:41.861Z,3.80
2023-04-15T00:33:43.906Z,3.13
2023-04-15T00:36:45.953Z,4.40
2023-04-15T00:39:47.773Z,2.95
2023-04-15T00:42:49.613Z,2.67
2023-04-15T00:45:52.023Z,4.82
2023-04-15T00:48:59.505Z,4.63
2023-04-15T00:52:04.814Z,3.35
2023-04-15T00:55:07.351Z,3.65
2023-04-15T00:58:13.122Z,4.13
2023-04-15T01:01:14.973Z,3.60
2023-04-15T01:04:17.324Z,4.65
2023-04-15T01:07:19.694Z,4.60
2023-04-15T01:10:21.552Z,4.13
2023-04-15T01:13:24.424Z,4.57
2023-04-15T01:16:26.927Z,3.95
2023-04-15T01:19:31.952Z,4.10
2023-04-15T01:22:37.417Z,3.33
2023-04-15T01:25:39.221Z,3.60
2023-04-15T01:28:41.208Z,4.05
2023-04-15T01:31:53.077Z,4.38
2023-04-15T01:34:57.675Z,5.10
2023-04-15T01:38:10.447Z,3.85
2023-04-15T01:41:15.038Z,5.45
2023-04-15T01:44:17.021Z,4.40
2023-04-15T01:47:18.892Z,4.70
2023-04-15T01:50:21.066Z,5.78
2023-04-15T01:53:22.906Z,6.10
2023-04-15T01:56:24.818Z,3.83
2023-04-15T01:59:30.132Z,7.00
2023-04-15T02:02:31.971Z,7.40
2023-04-15T02:05:34.009Z,4.82
2023-04-15T02:08:35.824Z,5.17
2023-04-15T02:11:37.729Z,5.43
2023-04-15T02:14:39.841Z,4.88
2023-04-15T02:17:48.847Z,5.50
2023-04-15T02:20:52.275Z,4.70
2023-04-15T02:23:57.443Z,4.53
2023-04-15T02:26:59.213Z,4.82
2023-04-15T02:30:05.470Z,9.40
2023-04-15T02:33:11.009Z,5.70
2023-04-15T02:36:12.896Z,4.85
2023-04-15T02:39:16.967Z,5.70
2023-04-15T02:42:22.536Z,5.30
2023-04-15T02:45:27.638Z,6.40
2023-04-15T02:48:33.165Z,7.32
2023-04-15T02:51:34.914Z,9.30
2023-04-15T02:54:39.626Z,9.05
2023-04-15T02:57:41.580Z,7.10
2023-04-15T03:00:46.173Z,5.90
2023-04-15T03:03:48.106Z,6.82
2023-04-15T03:06:49.945Z,5.50
2023-04-15T03:09:51.910Z,6.37
2023-04-15T03:12:54.133Z,6.28
2023-04-15T03:15:55.977Z,6.18
2023-04-15T03:19:02.372Z,9.55
2023-04-15T03:22:07.652Z,7.95
2023-04-15T03:25:09.816Z,6.55
2023-04-15T03:28:11.623Z,7.65
2023-04-15T03:31:17.019Z,8.07
2023-04-15T03:34:18.855Z,7.97
2023-04-15T03:37:20.665Z,8.73
2023-04-15T03:40:22.701Z,7.40
2023-04-15T03:43:24.529Z,7.15
2023-04-15T03:46:26.921Z,6.72
2023-04-15T03:49:32.067Z,12.45
2023-04-15T03:52:33.899Z,25.97
2023-04-15T03:55:39.500Z,35.15
2023-04-15T03:58:41.276Z,45.03
2023-04-15T04:01:46.146Z,40.25
2023-04-15T04:04:48.158Z,42.43
2023-04-15T04:07:50.218Z,41.47
2023-04-15T04:10:51.999Z,34.80
2023-04-15T04:13:54.034Z,39.85
2023-04-15T04:17:01.177Z,33.93
2023-04-15T04:20:07.378Z,39.88
2023-04-15T04:23:09.160Z,31.85
2023-04-15T04:26:11.168Z,36.55
2023-04-15T04:29:12.908Z,32.97
2023-04-15T04:32:14.731Z,30.92
2023-04-15T04:35:16.854Z,37.05
2023-04-15T04:38:19.018Z,40.03
2023-04-15T04:41:20.896Z,31.80
2023-04-15T04:44:22.714Z,36.72
2023-04-15T04:47:28.228Z,56.25
2023-04-15T04:50:30.216Z,59.85
2023-04-15T04:53:32.016Z,37.70
2023-04-15T04:56:34.832Z,28.45
2023-04-15T04:59:36.747Z,20.45
2023-04-15T05:02:38.948Z,17.92
2023-04-15T05:05:41.372Z,19.33
2023-04-15T05:08:43.194Z,13.55
2023-04-15T05:11:45.052Z,10.13
2023-04-15T05:14:47.272Z,8.65
2023-04-15T05:17:52.775Z,7.90
2023-04-15T05:20:54.594Z,8.02
2023-04-15T05:23:59.242Z,7.05
2023-04-15T05:27:02.061Z,8.07
2023-04-15T05:30:04.259Z,8.27
2023-04-15T05:33:10.402Z,6.40
2023-04-15T05:36:12.267Z,6.00
2023-04-15T05:39:14.076Z,5.65
2023-04-15T05:42:16.956Z,18.17
2023-04-15T05:45:19.255Z,20.23
2023-04-15T05:48:25.419Z,24.60
2023-04-15T05:51:27.413Z,29.67
2023-04-15T05:54:32.769Z,19.92
2023-04-15T05:57:34.579Z,9.30
2023-04-15T06:00:36.680Z,6.90
2023-04-15T06:03:42.197Z,6.00
2023-04-15T06:06:44.949Z,5.53
2023-04-15T06:09:46.684Z,6.70
2023-04-15T06:12:48.457Z,10.33
2023-04-15T06:15:50.265Z,14.52
2023-04-15T06:18:55.333Z,13.45
2023-04-15T06:21:59.921Z,16.02
2023-04-15T06:25:01.759Z,17.33
2023-04-15T06:28:07.343Z,10.83
2023-04-15T06:31:09.392Z,8.20
2023-04-15T06:34:15.675Z,19.90
2023-04-15T06:37:20.283Z,16.55
2023-04-15T06:40:22.038Z,15.23
2023-04-15T06:43:24.420Z,14.00
2023-04-15T06:46:26.316Z,19.10
2023-04-15T06:49:28.243Z,20.65
2023-04-15T06:52:34.412Z,21.98
2023-04-15T06:55:36.680Z,68.97
2023-04-15T06:58:41.851Z,103.23
2023-04-15T07:01:43.759Z,74.97
2023-04-15T07:04:45.897Z,50.53
2023-04-15T07:07:51.146Z,40.85
2023-04-15T07:11:02.113Z,25.02
2023-04-15T07:14:03.909Z,20.60
2023-04-15T07:17:05.785Z,43.80
2023-04-15T07:20:12.311Z,59.20
2023-04-15T07:23:14.193Z,28.00
2023-04-15T07:26:15.952Z,24.63
2023-04-15T07:29:17.748Z,25.00
2023-04-15T07:32:19.986Z,84.28
2023-04-15T07:35:26.394Z,53.05
2023-04-15T07:38:28.494Z,28.42
2023-04-15T07:41:31.091Z,23.00
2023-04-15T07:44:32.920Z,37.27
2023-04-15T07:47:34.804Z,38.22
2023-04-15T07:50:36.651Z,46.88
2023-04-15T07:53:42.416Z,35.40
2023-04-15T07:56:47.001Z,51.65
2023-04-15T07:59:48.771Z,41.93
2023-04-15T08:02:53.007Z,66.80
2023-04-15T08:05:58.112Z,46.40
2023-04-15T08:09:00.427Z,66.15
2023-04-15T08:12:02.471Z,36.35
2023-04-15T08:15:04.594Z,13.90
2023-04-15T08:18:06.578Z,43.15
2023-04-15T08:21:12.202Z,20.52
2023-04-15T08:24:14.670Z,14.43
2023-04-15T08:27:16.395Z,15.45
2023-04-15T08:30:18.704Z,16.67
2023-04-15T08:33:20.697Z,9.82
2023-04-15T08:36:22.452Z,12.27
2023-04-15T08:39:27.273Z,42.00
2023-04-15T08:42:36.477Z,19.20
2023-04-15T08:45:38.776Z,42.27
2023-04-15T08:48:40.963Z,32.55
2023-04-15T08:51:46.702Z,15.25
2023-04-15T08:54:48.578Z,24.90
2023-04-15T08:57:51.070Z,18.83
2023-04-15T09:00:52.999Z,4.83
2023-04-15T09:03:55.050Z,3.40
2023-04-15T09:07:01.657Z,3.75
2023-04-15T09:10:07.992Z,35.42
2023-04-15T09:13:09.850Z,35.08
2023-04-15T09:16:12.017Z,48.80
2023-04-15T09:19:24.033Z,24.38
2023-04-15T09:22:32.461Z,21.77
2023-04-15T09:25:37.360Z,49.55
2023-04-15T09:28:46.476Z,46.33
2023-04-15T09:31:48.215Z,27.60
2023-04-15T09:34:49.938Z,16.85
2023-04-15T09:37:54.964Z,15.80
2023-04-15T09:40:57.304Z,45.03
2023-04-15T09:44:02.653Z,32.65
2023-04-15T09:47:04.604Z,34.67
2023-04-15T09:50:07.149Z,45.75
2023-04-15T09:53:18.019Z,67.38
2023-04-15T09:56:20.890Z,90.70
2023-04-15T09:59:22.785Z,54.33
2023-04-15T10:02:24.710Z,45.50
2023-04-15T10:05:26.816Z,17.45
2023-04-15T10:08:29.900Z,22.00
2023-04-15T10:11:35.781Z,7.65
2023-04-15T10:14:42.194Z,8.60
2023-04-15T10:17:44.642Z,24.80
2023-04-15T10:20:47.094Z,16.33
2023-04-15T10:23:52.512Z,13.27
2023-04-15T10:26:54.230Z,24.73
2023-04-15T10:29:56.976Z,14.90
2023-04-15T10:32:58.851Z,20.60
2023-04-15T10:36:00.913Z,22.15
2023-04-15T10:39:06.477Z,19.52
2023-04-15T10:42:08.463Z,38.95
2023-04-15T10:45:16.552Z,51.35
2023-04-15T10:48:18.318Z,51.93
2023-04-15T10:51:30.686Z,44.53
2023-04-15T10:54:33.184Z,27.67
2023-04-15T10:57:39.678Z,12.95
2023-04-15T11:00:41.458Z,18.35
2023-04-15T11:03:43.655Z,20.00
2023-04-15T11:06:46.037Z,21.08
2023-04-15T11:09:51.746Z,18.08
2023-04-15T11:13:11.962Z,68.95
2023-04-15T11:16:13.953Z,46.05
2023-04-15T11:19:16.085Z,93.07
2023-04-15T11:22:17.921Z,54.47
2023-04-15T11:25:27.356Z,45.97
2023-04-15T11:28:35.010Z,48.67
2023-04-15T11:31:37.729Z,89.38
2023-04-15T11:34:39.793Z,47.27
2023-04-15T11:37:42.028Z,25.27
2023-04-15T11:40:46.754Z,33.30
2023-04-15T11:43:49.683Z,45.33
2023-04-15T11:46:51.645Z,26.60
2023-04-15T11:49:53.415Z,18.70
2023-04-15T11:52:59.680Z,36.28
2023-04-15T11:56:01.972Z,48.85
2023-04-15T11:59:07.302Z,58.28
2023-04-15T12:02:13.759Z,31.90
2023-04-15T12:05:16.016Z,50.73
2023-04-15T12:08:17.946Z,48.72
2023-04-15T12:11:34.774Z,54.03
2023-04-15T12:14:38.546Z,34.85
2023-04-15T12:17:52.181Z,13.52
2023-04-15T12:20:54.805Z,11.07
2023-04-15T12:23:57.292Z,16.95
2023-04-15T12:27:06.919Z,15.48
2023-04-15T12:30:09.169Z,16.80
2023-04-15T12:33:12.240Z,9.57
2023-04-15T12:36:14.258Z,8.60
2023-04-15T12:39:16.102Z,2.67
2023-04-15T12:42:18.000Z,2.65
2023-04-15T12:45:23.800Z,2.80
2023-04-15T12:48:29.258Z,2.67
2023-04-15T12:51:32.023Z,1.70
2023-04-15T12:54:34.757Z,13.75
2023-04-15T12:57:40.372Z,19.75
2023-04-15T13:00:42.288Z,13.23
2023-04-15T13:03:44.392Z,8.80
2023-04-15T13:06:46.542Z,10.13
2023-04-15T13:09:48.279Z,8.15
2023-04-15T13:12:56.375Z,8.75
2023-04-15T13:15:58.642Z,5.82
2023-04-15T13:19:01.069Z,5.45
2023-04-15T13:22:03.057Z,4.43
2023-04-15T13:25:05.384Z,4.80
2023-04-15T13:28:07.136Z,4.90
2023-04-15T13:31:09.161Z,3.40
2023-04-15T13:34:11.069Z,4.50
2023-04-15T13:37:12.832Z,3.40
2023-04-15T13:40:14.756Z,3.30
2023-04-15T13:43:21.627Z,3.20
2023-04-15T13:46:23.369Z,3.13
2023-04-15T13:49:28.322Z,3.38
2023-04-15T13:52:30.135Z,6.13
2023-04-15T13:55:31.898Z,5.05
2023-04-15T13:58:36.666Z,5.88
2023-04-15T14:01:38.490Z,6.20
2023-04-15T14:04:40.259Z,5.30
2023-04-15T14:07:42.365Z,5.67
2023-04-15T14:10:48.497Z,5.35
2023-04-15T14:13:53.354Z,4.15
2023-04-15T14:16:58.172Z,5.50
2023-04-15T14:20:00.074Z,5.10
2023-04-15T14:23:01.890Z,5.20
2023-04-15T14:26:03.740Z,3.78
2023-04-15T14:29:05.731Z,4.63
2023-04-15T14:32:12.930Z,4.95
2023-04-15T14:35:14.898Z,3.50
2023-04-15T14:38:16.658Z,4.10
2023-04-15T14:41:18.466Z,4.07
2023-04-15T14:44:23.324Z,2.80
2023-04-15T14:47:25.929Z,3.75
2023-04-15T14:50:30.749Z,6.45
2023-04-15T14:53:32.526Z,3.87
2023-04-15T14:56:34.384Z,4.05
2023-04-15T14:59:40.036Z,4.20
2023-04-15T15:02:42.578Z,3.03
2023-04-15T15:05:46.509Z,4.63
2023-04-15T15:08:49.452Z,3.57
2023-04-15T15:11:51.346Z,3.08
2023-04-15T15:14:53.177Z,4.03
2023-04-15T15:17:55.040Z,2.25
2023-04-15T15:20:57.032Z,2.75
2023-04-15T15:23:58.792Z,3.80
2023-04-15T15:27:00.576Z,3.00
2023-04-15T15:30:02.319Z,2.92
2023-04-15T15:33:07.468Z,2.38
2023-04-15T15:36:13.816Z,2.47
2023-04-15T15:39:15.795Z,1.30
2023-04-15T15:42:19.432Z,1.80
2023-04-15T15:45:25.818Z,2.97
2023-04-15T15:48:27.653Z,2.50
2023-04-15T15:51:29.545Z,2.92
2023-04-15T15:54:32.117Z,2.30
2023-04-15T15:57:33.946Z,4.25
2023-04-15T16:00:39.910Z,3.72
2023-04-15T16:03:42.054Z,3.17
2023-04-15T16:06:45.044Z,4.72
2023-04-15T16:09:46.890Z,2.70
2023-04-15T16:12:48.616Z,2.45
2023-04-15T16:15:50.538Z,3.35
2023-04-15T16:18:52.417Z,3.42
2023-04-15T16:21:54.193Z,4.70
2023-04-15T16:24:56.011Z,3.67
2023-04-15T16:28:01.482Z,3.83
2023-04-15T16:31:13.243Z,4.60
2023-04-15T16:34:16.196Z,3.42
2023-04-15T16:37:17.965Z,4.60
2023-04-15T16:40:19.784Z,5.70
2023-04-15T16:43:21.579Z,6.43
2023-04-15T16:46:23.514Z,5.43
2023-04-15T16:49:25.378Z,4.78
2023-04-15T16:52:28.381Z,5.13
2023-04-15T16:55:30.109Z,4.10
2023-04-15T16:58:32.086Z,6.03
2023-04-15T17:01:34.068Z,4.40
2023-04-15T17:04:35.952Z,3.25
2023-04-15T17:07:37.814Z,5.30
2023-04-15T17:10:39.579Z,5.87
2023-04-15T17:13:41.546Z,5.63
2023-04-15T17:16:49.479Z,5.07
2023-04-15T17:19:52.441Z,7.85
2023-04-15T17:22:57.684Z,7.00
2023-04-15T17:25:59.822Z,5.17
2023-04-15T17:29:01.613Z,6.03
2023-04-15T17:32:07.848Z,5.38
2023-04-15T17:35:10.163Z,5.70
2023-04-15T17:38:12.481Z,6.00
2023-04-15T17:41:14.383Z,4.87
2023-04-15T17:44:16.185Z,4.85
2023-04-15T17:47:22.079Z,5.55
2023-04-15T17:50:27.433Z,5.32
2023-04-15T17:53:29.596Z,4.93
2023-04-15T17:56:31.644Z,5.50
2023-04-15T17:59:34.355Z,5.28
2023-04-15T18:02:37.305Z,5.50
2023-04-15T18:05:41.358Z,4.18
2023-04-15T18:08:44.431Z,5.20
2023-04-15T18:11:48.467Z,5.20
2023-04-15T18:14:50.246Z,5.53
2023-04-15T18:17:52.175Z,5.50
2023-04-15T18:20:58.240Z,6.30
2023-04-15T18:24:03.055Z,4.40
2023-04-15T18:27:05.001Z,6.15
2023-04-15T18:30:10.897Z,10.93
2023-04-15T18:33:12.673Z,5.85
2023-04-15T18:36:14.579Z,8.30
2023-04-15T18:39:17.115Z,8.40
2023-04-15T18:42:18.907Z,8.43
2023-04-15T18:45:20.974Z,7.63
2023-04-15T18:48:27.254Z,8.15
2023-04-15T18:51:29.057Z,9.47
2023-04-15T18:54:33.686Z,8.20
2023-04-15T18:57:36.098Z,9.73
2023-04-15T19:00:41.936Z,7.22
2023-04-15T19:03:46.667Z,8.65
2023-04-15T19:06:48.555Z,11.37
2023-04-15T19:09:50.358Z,9.65
2023-04-15T19:12:52.186Z,9.52
2023-04-15T19:15:53.961Z,9.48
2023-04-15T19:18:58.882Z,8.37
2023-04-15T19:22:06.200Z,8.37
2023-04-15T19:25:08.928Z,11.05
2023-04-15T19:28:10.852Z,9.98
2023-04-15T19:31:12.716Z,10.50
2023-04-15T19:34:14.732Z,8.83
2023-04-15T19:37:16.715Z,9.45
2023-04-15T19:40:18.488Z,11.23
2023-04-15T19:43:20.623Z,8.38
2023-04-15T19:46:22.398Z,11.37
2023-04-15T19:49:30.131Z,9.17
2023-04-15T19:52:32.183Z,7.97
2023-04-15T19:55:34.046Z,11.23
2023-04-15T19:58:35.878Z,9.95
2023-04-15T20:01:37.674Z,11.13
2023-04-15T20:04:43.082Z,10.90
2023-04-15T20:07:47.869Z,10.63
2023-04-15T20:10:49.732Z,10.20
2023-04-15T20:13:51.472Z,10.33
2023-04-15T20:16:53.280Z,9.43
2023-04-15T20:19:55.065Z,10.20
2023-04-15T20:22:59.832Z,8.40
2023-04-15T20:26:01.703Z,8.00
2023-04-15T20:29:03.825Z,6.95
2023-04-15T20:32:06.917Z,15.75
2023-04-15T20:35:11.982Z,9.80
2023-04-15T20:38:16.728Z,9.00
2023-04-15T20:41:18.630Z,7.70
2023-04-15T20:44:20.649Z,8.98
2023-04-15T20:47:22.614Z,9.25
2023-04-15T20:50:27.939Z,10.70
2023-04-15T20:53:29.809Z,10.10
2023-04-15T20:56:32.284Z,10.43
2023-04-15T20:59:34.978Z,9.43
2023-04-15T21:02:37.806Z,8.85
2023-04-15T21:05:39.819Z,8.85
2023-04-15T21:08:44.714Z,8.57
2023-04-15T21:12:00.394Z,10.68
2023-04-15T21:15:03.431Z,8.43
2023-04-15T21:18:05.262Z,9.40
2023-04-15T21:21:11.440Z,7.57
2023-04-15T21:24:13.204Z,9.70
2023-04-15T21:27:15.195Z,8.73
2023-04-15T21:30:17.120Z,9.35
2023-04-15T21:33:20.534Z,8.20
2023-04-15T21:36:26.356Z,7.50
2023-04-15T21:39:31.954Z,7.25
2023-04-15T21:42:33.743Z,8.30
2023-04-15T21:45:36.154Z,7.93
2023-04-15T21:48:38.137Z,11.30
2023-04-15T21:51:40.140Z,7.17
2023-04-15T21:54:45.052Z,9.07
2023-04-15T21:57:46.923Z,7.43
2023-04-15T22:00:48.891Z,8.07
2023-04-15T22:03:51.162Z,6.47
2023-04-15T22:06:55.785Z,8.77
2023-04-15T22:09:57.542Z,5.68
2023-04-15T22:13:02.969Z,6.68
2023-04-15T22:16:04.795Z,5.75
2023-04-15T22:19:06.872Z,5.60
2023-04-15T22:22:08.950Z,7.45
2023-04-15T22:25:10.865Z,7.38
2023-04-15T22:28:12.656Z,8.30
2023-04-15T22:31:15.185Z,6.40
2023-04-15T22:34:21.536Z,7.77
2023-04-15T22:37:24.290Z,6.10
2023-04-15T22:40:26.320Z,7.15
2023-04-15T22:43:28.107Z,6.78
2023-04-15T22:46:29.913Z,7.33
2023-04-15T22:49:31.771Z,6.22
2023-04-15T22:52:33.587Z,7.75
2023-04-15T22:55:35.624Z,7.25
2023-04-15T22:58:37.375Z,8.23
2023-04-15T23:01:39.193Z,6.27
2023-04-15T23:04:41.268Z,7.32
2023-04-15T23:07:47.163Z,5.38
2023-04-15T23:10:54.588Z,7.20
2023-04-15T23:13:56.808Z,6.90
2023-04-15T23:16:58.711Z,7.13
2023-04-15T23:20:00.528Z,6.55
2023-04-15T23:23:02.380Z,6.60
2023-04-15T23:26:04.449Z,9.33
2023-04-15T23:29:06.335Z,8.10
2023-04-15T23:32:08.425Z,8.00
2023-04-15T23:35:10.270Z,9.05
2023-04-15T23:38:12.131Z,7.45
2023-04-15T23:41:17.218Z,6.77
2023-04-15T23:44:19.449Z,6.35
2023-04-15T23:47:21.498Z,5.75
2023-04-15T23:50:23.418Z,5.28
2023-04-15T23:53:29.277Z,5.95
2023-04-15T23:56:31.902Z,7.33
2023-04-15T23:59:36.751Z,5.10
